sensor_id;sensor_type;location;lat;lon;timestamp;temperature;humidity
23813;DHT22;12087;45.190;5.688;2024-03-25T01:07:44;7.90;99.90
23813;DHT22;12087;45.190;5.688;2024-03-25T01:13:06;7.90;99.90
23813;DHT22;12087;45.190;5.688;2024-03-25T01:18:29;7.90;99.90
23813;DHT22;12087;45.190;5.688;2024-03-25T01:23:52;7.80;99.90
23813;DHT22;12087;45.190;5.688;2024-03-25T01:29:15;7.80;99.90
23813;DHT22;12087;45.190;5.688;2024-03-25T01:34:37;7.90;99.90
23813;DHT22;12087;45.190;5.688;2024-03-25T01:40:00;7.70;99.90
23813;DHT22;12087;45.190;5.688;2024-03-25T01:45:25;7.60;99.90
23813;DHT22;12087;45.190;5.688;2024-03-25T01:50:49;7.50;99.90
23813;DHT22;12087;45.190;5.688;2024-03-25T01:56:14;7.60;99.90
23813;DHT22;12087;45.190;5.688;2024-03-25T02:01:37;7.60;99.90
23813;DHT22;12087;45.190;5.688;2024-03-25T02:06:59;7.60;99.90
23813;DHT22;12087;45.190;5.688;2024-03-25T02:12:24;7.50;99.90
23813;DHT22;12087;45.190;5.688;2024-03-25T02:17:46;7.40;99.90
23813;DHT22;12087;45.190;5.688;2024-03-25T02:23:08;7.40;99.90
23813;DHT22;12087;45.190;5.688;2024-03-25T02:28:32;7.30;99.90
23813;DHT22;12087;45.190;5.688;2024-03-25T02:33:54;7.20;99.90
23813;DHT22;12087;45.190;5.688;2024-03-25T02:39:18;7.00;99.90
23813;DHT22;12087;45.190;5.688;2024-03-25T02:44:43;6.80;99.90
23813;DHT22;12087;45.190;5.688;2024-03-25T02:50:06;6.80;99.90
23813;DHT22;12087;45.190;5.688;2024-03-25T02:55:28;6.70;99.90
23813;DHT22;12087;45.190;5.688;2024-03-25T03:00:51;6.70;99.90
23813;DHT22;12087;45.190;5.688;2024-03-25T03:06:14;6.60;99.90
23813;DHT22;12087;45.190;5.688;2024-03-25T03:11:36;6.70;99.90
23813;DHT22;12087;45.190;5.688;2024-03-25T03:16:59;6.70;99.90
23813;DHT22;12087;45.190;5.688;2024-03-25T03:22:25;6.70;99.90
23813;DHT22;12087;45.190;5.688;2024-03-25T03:27:47;6.60;99.90
23813;DHT22;12087;45.190;5.688;2024-03-25T03:33:11;6.40;99.90
23813;DHT22;12087;45.190;5.688;2024-03-25T03:38:33;6.30;99.90
23813;DHT22;12087;45.190;5.688;2024-03-25T03:43:55;6.20;99.90
23813;DHT22;12087;45.190;5.688;2024-03-25T03:49:19;6.20;99.90
23813;DHT22;12087;45.190;5.688;2024-03-25T03:54:41;6.10;99.90
23813;DHT22;12087;45.190;5.688;2024-03-25T04:00:04;6.10;99.90
23813;DHT22;12087;45.190;5.688;2024-03-25T04:05:30;6.20;99.90
23813;DHT22;12087;45.190;5.688;2024-03-25T04:10:52;6.10;99.90
23813;DHT22;12087;45.190;5.688;2024-03-25T04:16:14;6.10;99.90
23813;DHT22;12087;45.190;5.688;2024-03-25T04:21:38;6.10;99.90
23813;DHT22;12087;45.190;5.688;2024-03-25T04:27:00;6.10;99.90
23813;DHT22;12087;45.190;5.688;2024-03-25T04:32:22;6.10;99.90
23813;DHT22;12087;45.190;5.688;2024-03-25T04:37:46;6.10;99.90
23813;DHT22;12087;45.190;5.688;2024-03-25T04:45:20;6.00;99.90
23813;DHT22;12087;45.190;5.688;2024-03-25T05:34:44;5.80;99.90
23813;DHT22;12087;45.190;5.688;2024-03-25T05:40:07;5.70;99.90
23813;DHT22;12087;45.190;5.688;2024-03-25T05:45:28;5.60;99.90
23813;DHT22;12087;45.190;5.688;2024-03-25T05:50:58;5.50;99.90
23813;DHT22;12087;45.190;5.688;2024-03-25T05:56:20;5.60;99.90
23813;DHT22;12087;45.190;5.688;2024-03-25T06:01:41;5.60;99.90
23813;DHT22;12087;45.190;5.688;2024-03-25T06:13:54;5.50;99.90
23813;DHT22;12087;45.190;5.688;2024-03-25T06:19:16;5.60;99.90
23813;DHT22;12087;45.190;5.688;2024-03-25T06:24:37;5.50;99.90
23813;DHT22;12087;45.190;5.688;2024-03-25T06:29:59;5.60;99.90
23813;DHT22;12087;45.190;5.688;2024-03-25T06:35:35;5.80;99.90
23813;DHT22;12087;45.190;5.688;2024-03-25T06:40:57;5.90;99.90
23813;DHT22;12087;45.190;5.688;2024-03-25T06:46:19;6.00;99.90
23813;DHT22;12087;45.190;5.688;2024-03-25T06:51:40;6.00;99.90
23813;DHT22;12087;45.190;5.688;2024-03-25T06:57:02;6.00;99.90
23813;DHT22;12087;45.190;5.688;2024-03-25T07:02:24;6.20;99.90
23813;DHT22;12087;45.190;5.688;2024-03-25T07:07:46;6.30;99.90
23813;DHT22;12087;45.190;5.688;2024-03-25T07:13:07;6.50;99.90
23813;DHT22;12087;45.190;5.688;2024-03-25T07:18:29;6.70;99.90
23813;DHT22;12087;45.190;5.688;2024-03-25T07:23:50;6.70;99.90
23813;DHT22;12087;45.190;5.688;2024-03-25T07:29:12;6.90;99.90
23813;DHT22;12087;45.190;5.688;2024-03-25T07:34:34;7.10;99.90
23813;DHT22;12087;45.190;5.688;2024-03-25T07:39:55;7.30;99.90
23813;DHT22;12087;45.190;5.688;2024-03-25T07:45:17;8.70;99.90
23813;DHT22;12087;45.190;5.688;2024-03-25T07:50:40;10.40;99.90
23813;DHT22;12087;45.190;5.688;2024-03-25T07:56:01;11.70;99.90
23813;DHT22;12087;45.190;5.688;2024-03-25T08:01:22;12.10;99.90
23813;DHT22;12087;45.190;5.688;2024-03-25T08:06:45;12.00;99.90
23813;DHT22;12087;45.190;5.688;2024-03-25T08:12:06;11.70;99.90
23813;DHT22;12087;45.190;5.688;2024-03-25T08:17:28;11.60;99.90
23813;DHT22;12087;45.190;5.688;2024-03-25T08:22:50;11.60;99.90
23813;DHT22;12087;45.190;5.688;2024-03-25T08:28:11;11.50;99.90
23813;DHT22;12087;45.190;5.688;2024-03-25T08:33:33;11.40;99.90
23813;DHT22;12087;45.190;5.688;2024-03-25T08:38:55;11.30;99.90
23813;DHT22;12087;45.190;5.688;2024-03-25T08:44:16;11.10;99.90
23813;DHT22;12087;45.190;5.688;2024-03-25T08:49:37;11.00;99.90
23813;DHT22;12087;45.190;5.688;2024-03-25T08:55:00;11.10;99.90
23813;DHT22;12087;45.190;5.688;2024-03-25T09:00:21;11.00;99.90
23813;DHT22;12087;45.190;5.688;2024-03-25T09:05:43;11.10;99.90
23813;DHT22;12087;45.190;5.688;2024-03-25T09:11:05;11.20;99.90
23813;DHT22;12087;45.190;5.688;2024-03-25T09:16:27;11.30;99.90
23813;DHT22;12087;45.190;5.688;2024-03-25T09:21:48;11.50;99.90
23813;DHT22;12087;45.190;5.688;2024-03-25T09:27:10;11.60;99.40
23813;DHT22;12087;45.190;5.688;2024-03-25T09:32:32;11.70;99.00
23813;DHT22;12087;45.190;5.688;2024-03-25T09:37:53;11.70;99.20
23813;DHT22;12087;45.190;5.688;2024-03-25T09:43:20;11.80;99.20
23813;DHT22;12087;45.190;5.688;2024-03-25T09:48:44;11.90;95.60
23813;DHT22;12087;45.190;5.688;2024-03-25T09:54:05;12.00;95.60
23813;DHT22;12087;45.190;5.688;2024-03-25T09:59:28;12.10;95.80
23813;DHT22;12087;45.190;5.688;2024-03-25T10:04:49;12.10;94.70
23813;DHT22;12087;45.190;5.688;2024-03-25T10:10:11;12.10;93.60
23813;DHT22;12087;45.190;5.688;2024-03-25T10:15:34;12.00;93.40
23813;DHT22;12087;45.190;5.688;2024-03-25T10:20:55;12.30;94.90
23813;DHT22;12087;45.190;5.688;2024-03-25T10:26:29;12.40;93.50
23813;DHT22;12087;45.190;5.688;2024-03-25T10:32:00;12.80;92.20
23813;DHT22;12087;45.190;5.688;2024-03-25T10:37:21;13.00;92.30
23813;DHT22;12087;45.190;5.688;2024-03-25T10:42:46;13.20;91.70
23813;DHT22;12087;45.190;5.688;2024-03-25T10:48:14;13.30;91.20
23813;DHT22;12087;45.190;5.688;2024-03-25T10:53:37;13.20;89.30
23813;DHT22;12087;45.190;5.688;2024-03-25T10:58:59;13.00;90.70
23813;DHT22;12087;45.190;5.688;2024-03-25T11:04:22;13.00;88.00
23813;DHT22;12087;45.190;5.688;2024-03-25T11:09:44;13.10;88.60
23813;DHT22;12087;45.190;5.688;2024-03-25T11:15:06;13.20;90.00
23813;DHT22;12087;45.190;5.688;2024-03-25T11:20:29;13.40;88.10
23813;DHT22;12087;45.190;5.688;2024-03-25T11:25:55;13.70;84.30
23813;DHT22;12087;45.190;5.688;2024-03-25T11:31:17;13.80;81.50
23813;DHT22;12087;45.190;5.688;2024-03-25T11:36:40;13.80;83.80
23813;DHT22;12087;45.190;5.688;2024-03-25T11:42:01;14.00;81.70
23813;DHT22;12087;45.190;5.688;2024-03-25T11:47:23;14.20;81.00
23813;DHT22;12087;45.190;5.688;2024-03-25T11:52:46;14.20;80.50
23813;DHT22;12087;45.190;5.688;2024-03-25T11:58:07;14.20;79.20
23813;DHT22;12087;45.190;5.688;2024-03-25T12:03:28;14.20;78.00
23813;DHT22;12087;45.190;5.688;2024-03-25T12:08:51;14.10;76.80
23813;DHT22;12087;45.190;5.688;2024-03-25T12:14:27;14.00;81.80
23813;DHT22;12087;45.190;5.688;2024-03-25T12:19:59;14.20;77.40
23813;DHT22;12087;45.190;5.688;2024-03-25T12:25:21;14.40;76.60
23813;DHT22;12087;45.190;5.688;2024-03-25T12:30:50;14.50;77.40
23813;DHT22;12087;45.190;5.688;2024-03-25T12:36:12;14.70;78.10
23813;DHT22;12087;45.190;5.688;2024-03-25T12:41:36;14.80;76.20
23813;DHT22;12087;45.190;5.688;2024-03-25T12:46:57;14.60;76.50
23813;DHT22;12087;45.190;5.688;2024-03-25T12:52:18;14.60;80.30
23813;DHT22;12087;45.190;5.688;2024-03-25T12:57:41;14.70;78.30
23813;DHT22;12087;45.190;5.688;2024-03-25T13:03:02;14.60;76.00
23813;DHT22;12087;45.190;5.688;2024-03-25T13:08:23;14.70;74.80
23813;DHT22;12087;45.190;5.688;2024-03-25T13:13:46;14.70;74.70
23813;DHT22;12087;45.190;5.688;2024-03-25T13:19:07;14.80;73.70
23813;DHT22;12087;45.190;5.688;2024-03-25T13:24:28;14.80;75.60
23813;DHT22;12087;45.190;5.688;2024-03-25T13:29:51;14.60;75.40
23813;DHT22;12087;45.190;5.688;2024-03-25T13:35:13;14.50;77.40
23813;DHT22;12087;45.190;5.688;2024-03-25T13:40:35;14.50;78.70
23813;DHT22;12087;45.190;5.688;2024-03-25T13:45:57;14.40;77.10
23813;DHT22;12087;45.190;5.688;2024-03-25T13:51:18;14.40;77.90
23813;DHT22;12087;45.190;5.688;2024-03-25T13:56:40;14.50;79.50
23813;DHT22;12087;45.190;5.688;2024-03-25T14:02:03;14.50;80.30
23813;DHT22;12087;45.190;5.688;2024-03-25T14:07:24;14.80;79.10
23813;DHT22;12087;45.190;5.688;2024-03-25T14:12:45;14.90;78.00
23813;DHT22;12087;45.190;5.688;2024-03-25T14:18:09;15.20;80.70
23813;DHT22;12087;45.190;5.688;2024-03-25T14:23:30;15.20;76.20
23813;DHT22;12087;45.190;5.688;2024-03-25T14:28:51;15.20;77.30
23813;DHT22;12087;45.190;5.688;2024-03-25T14:34:13;15.10;76.10
23813;DHT22;12087;45.190;5.688;2024-03-25T14:39:35;15.00;77.70
23813;DHT22;12087;45.190;5.688;2024-03-25T14:44:56;15.00;77.30
23813;DHT22;12087;45.190;5.688;2024-03-25T14:50:18;15.10;77.30
23813;DHT22;12087;45.190;5.688;2024-03-25T14:55:41;15.10;74.00
23813;DHT22;12087;45.190;5.688;2024-03-25T15:01:03;15.10;76.30
23813;DHT22;12087;45.190;5.688;2024-03-25T15:06:25;14.90;77.80
23813;DHT22;12087;45.190;5.688;2024-03-25T15:11:46;14.70;75.80
23813;DHT22;12087;45.190;5.688;2024-03-25T15:17:07;14.70;77.30
23813;DHT22;12087;45.190;5.688;2024-03-25T15:22:30;14.70;76.70
23813;DHT22;12087;45.190;5.688;2024-03-25T15:27:51;14.70;76.00
23813;DHT22;12087;45.190;5.688;2024-03-25T15:33:13;14.60;76.80
23813;DHT22;12087;45.190;5.688;2024-03-25T15:38:35;14.60;75.60
23813;DHT22;12087;45.190;5.688;2024-03-25T15:43:57;14.60;78.00
23813;DHT22;12087;45.190;5.688;2024-03-25T15:49:18;14.50;77.40
23813;DHT22;12087;45.190;5.688;2024-03-25T15:54:40;14.50;78.60
23813;DHT22;12087;45.190;5.688;2024-03-25T16:00:02;14.40;79.10
23813;DHT22;12087;45.190;5.688;2024-03-25T16:05:23;14.30;78.60
23813;DHT22;12087;45.190;5.688;2024-03-25T16:10:46;14.30;79.00
23813;DHT22;12087;45.190;5.688;2024-03-25T16:16:07;14.30;82.60
23813;DHT22;12087;45.190;5.688;2024-03-25T16:21:28;14.20;81.60
23813;DHT22;12087;45.190;5.688;2024-03-25T16:26:51;14.20;82.70
23813;DHT22;12087;45.190;5.688;2024-03-25T16:32:12;14.10;83.90
23813;DHT22;12087;45.190;5.688;2024-03-25T16:37:33;14.00;83.50
23813;DHT22;12087;45.190;5.688;2024-03-25T16:42:56;14.00;83.60
23813;DHT22;12087;45.190;5.688;2024-03-25T16:48:17;13.90;85.30
23813;DHT22;12087;45.190;5.688;2024-03-25T16:53:38;13.80;85.90
23813;DHT22;12087;45.190;5.688;2024-03-25T16:59:01;13.70;85.60
23813;DHT22;12087;45.190;5.688;2024-03-25T17:04:22;13.70;88.30
23813;DHT22;12087;45.190;5.688;2024-03-25T17:09:43;13.60;86.30
23813;DHT22;12087;45.190;5.688;2024-03-25T17:15:06;13.60;87.40
23813;DHT22;12087;45.190;5.688;2024-03-25T17:20:28;13.60;88.00
23813;DHT22;12087;45.190;5.688;2024-03-25T17:25:49;13.50;88.30
23813;DHT22;12087;45.190;5.688;2024-03-25T17:31:13;13.50;87.10
23813;DHT22;12087;45.190;5.688;2024-03-25T17:36:34;13.40;88.80
23813;DHT22;12087;45.190;5.688;2024-03-25T17:41:55;13.40;88.70
23813;DHT22;12087;45.190;5.688;2024-03-25T17:47:18;13.40;89.10
23813;DHT22;12087;45.190;5.688;2024-03-25T17:52:39;13.30;88.30
23813;DHT22;12087;45.190;5.688;2024-03-25T17:58:00;13.30;88.20
23813;DHT22;12087;45.190;5.688;2024-03-25T18:03:22;13.20;87.70
23813;DHT22;12087;45.190;5.688;2024-03-25T18:08:44;13.20;90.20
23813;DHT22;12087;45.190;5.688;2024-03-25T18:14:05;13.20;89.20
23813;DHT22;12087;45.190;5.688;2024-03-25T18:19:28;13.20;90.10
23813;DHT22;12087;45.190;5.688;2024-03-25T18:24:49;13.10;89.80
23813;DHT22;12087;45.190;5.688;2024-03-25T18:30:11;13.20;89.80
23813;DHT22;12087;45.190;5.688;2024-03-25T18:35:37;13.20;91.40
23813;DHT22;12087;45.190;5.688;2024-03-25T18:40:59;13.10;97.30
23813;DHT22;12087;45.190;5.688;2024-03-25T18:46:20;13.00;99.50
23813;DHT22;12087;45.190;5.688;2024-03-25T18:51:43;12.80;99.90
23813;DHT22;12087;45.190;5.688;2024-03-25T18:57:04;12.80;99.90
23813;DHT22;12087;45.190;5.688;2024-03-25T19:02:25;12.80;99.90
23813;DHT22;12087;45.190;5.688;2024-03-25T19:07:48;12.70;99.90
23813;DHT22;12087;45.190;5.688;2024-03-25T19:13:09;12.60;99.90
23813;DHT22;12087;45.190;5.688;2024-03-25T19:18:30;12.50;99.90
23813;DHT22;12087;45.190;5.688;2024-03-25T19:23:53;12.50;99.90
23813;DHT22;12087;45.190;5.688;2024-03-25T19:29:14;12.40;99.90
23813;DHT22;12087;45.190;5.688;2024-03-25T19:34:35;12.30;99.90
23813;DHT22;12087;45.190;5.688;2024-03-25T19:39:57;12.30;99.90
23813;DHT22;12087;45.190;5.688;2024-03-25T19:45:19;12.30;99.90
23813;DHT22;12087;45.190;5.688;2024-03-25T19:50:40;12.20;99.90
23813;DHT22;12087;45.190;5.688;2024-03-25T19:56:03;12.20;99.90
23813;DHT22;12087;45.190;5.688;2024-03-25T20:01:24;12.10;99.90
23813;DHT22;12087;45.190;5.688;2024-03-25T20:06:45;12.10;99.90
23813;DHT22;12087;45.190;5.688;2024-03-25T20:12:08;12.00;99.90
23813;DHT22;12087;45.190;5.688;2024-03-25T20:17:29;12.00;99.90
23813;DHT22;12087;45.190;5.688;2024-03-25T20:22:50;12.00;99.90
23813;DHT22;12087;45.190;5.688;2024-03-25T20:28:15;12.00;99.90
23813;DHT22;12087;45.190;5.688;2024-03-25T20:33:37;11.90;99.90
23813;DHT22;12087;45.190;5.688;2024-03-25T20:38:58;11.90;99.90
23813;DHT22;12087;45.190;5.688;2024-03-25T20:44:21;11.90;99.90
23813;DHT22;12087;45.190;5.688;2024-03-25T20:49:42;11.90;99.90
23813;DHT22;12087;45.190;5.688;2024-03-25T20:55:03;11.80;99.90
23813;DHT22;12087;45.190;5.688;2024-03-25T21:00:26;11.80;99.90
23813;DHT22;12087;45.190;5.688;2024-03-25T21:05:54;11.80;99.90
23813;DHT22;12087;45.190;5.688;2024-03-25T21:11:15;11.70;99.90
23813;DHT22;12087;45.190;5.688;2024-03-25T21:16:38;11.70;99.90
23813;DHT22;12087;45.190;5.688;2024-03-25T21:22:00;11.70;99.90
23813;DHT22;12087;45.190;5.688;2024-03-25T21:27:21;11.70;99.90
23813;DHT22;12087;45.190;5.688;2024-03-25T21:32:44;11.70;99.90
23813;DHT22;12087;45.190;5.688;2024-03-25T21:38:05;11.70;99.90
23813;DHT22;12087;45.190;5.688;2024-03-25T21:43:58;11.70;99.90
23813;DHT22;12087;45.190;5.688;2024-03-25T21:56:32;11.60;99.90
23813;DHT22;12087;45.190;5.688;2024-03-25T22:01:25;11.60;99.90
23813;DHT22;12087;45.190;5.688;2024-03-25T22:06:49;11.60;99.90
23813;DHT22;12087;45.190;5.688;2024-03-25T22:12:10;11.60;99.90
23813;DHT22;12087;45.190;5.688;2024-03-25T22:17:32;11.50;99.90
23813;DHT22;12087;45.190;5.688;2024-03-25T22:22:55;11.40;99.90
23813;DHT22;12087;45.190;5.688;2024-03-25T22:28:17;11.20;99.90
23813;DHT22;12087;45.190;5.688;2024-03-25T22:33:38;11.20;99.90
23813;DHT22;12087;45.190;5.688;2024-03-25T22:39:01;11.10;99.90
23813;DHT22;12087;45.190;5.688;2024-03-25T22:44:23;11.00;99.90
23813;DHT22;12087;45.190;5.688;2024-03-25T22:49:44;10.90;99.90
23813;DHT22;12087;45.190;5.688;2024-03-25T22:55:07;10.70;99.90
23813;DHT22;12087;45.190;5.688;2024-03-25T23:00:29;10.60;99.90
23813;DHT22;12087;45.190;5.688;2024-03-25T23:05:54;10.50;99.90
23813;DHT22;12087;45.190;5.688;2024-03-25T23:11:17;10.50;99.90
23813;DHT22;12087;45.190;5.688;2024-03-25T23:16:39;10.50;99.90
23813;DHT22;12087;45.190;5.688;2024-03-25T23:22:00;10.40;99.90
23813;DHT22;12087;45.190;5.688;2024-03-25T23:27:23;10.40;99.90
23813;DHT22;12087;45.190;5.688;2024-03-25T23:32:44;10.40;99.90
23813;DHT22;12087;45.190;5.688;2024-03-25T23:38:05;10.40;99.90
23813;DHT22;12087;45.190;5.688;2024-03-25T23:43:28;10.40;99.90
23813;DHT22;12087;45.190;5.688;2024-03-25T23:48:49;10.40;99.90
23813;DHT22;12087;45.190;5.688;2024-03-25T23:54:10;10.40;99.90
23813;DHT22;12087;45.190;5.688;2024-03-25T23:59:36;10.30;99.90
